createdAt,value
2022-08-05T00:01:35.455Z,8.40
2022-08-05T00:04:08.205Z,7.97
2022-08-05T00:06:36.449Z,7.47
2022-08-05T00:09:12.942Z,13.73
2022-08-05T00:11:49.002Z,9.00
2022-08-05T00:14:27.822Z,8.87
2022-08-05T00:17:01.895Z,7.60
2022-08-05T00:19:33.814Z,8.50
2022-08-05T00:22:12.204Z,10.63
2022-08-05T00:24:42.545Z,10.47
2022-08-05T00:27:14.012Z,10.07
2022-08-05T00:29:44.607Z,8.90
2022-08-05T00:32:15.028Z,11.57
2022-08-05T00:35:03.593Z,8.93
2022-08-05T00:37:50.721Z,9.73
2022-08-05T00:40:26.980Z,9.33
2022-08-05T00:42:57.262Z,14.47
2022-08-05T00:45:38.034Z,23.60
2022-08-05T00:48:07.869Z,12.23
2022-08-05T00:50:35.947Z,11.43
2022-08-05T00:53:16.058Z,13.23
2022-08-05T00:55:53.448Z,10.23
2022-08-05T00:58:21.198Z,8.40
2022-08-05T01:00:55.577Z,12.80
2022-08-05T01:03:24.193Z,9.23
2022-08-05T01:05:59.030Z,12.20
2022-08-05T01:08:39.826Z,12.43
2022-08-05T01:11:21.793Z,11.87
2022-08-05T01:14:01.733Z,11.07
2022-08-05T01:16:34.753Z,9.53
2022-08-05T01:19:14.340Z,11.10
2022-08-05T01:21:58.198Z,12.77
2022-08-05T01:24:53.122Z,16.83
2022-08-05T01:27:50.700Z,12.57
2022-08-05T01:30:34.511Z,11.40
2022-08-05T01:33:08.301Z,15.40
2022-08-05T01:35:51.215Z,12.03
2022-08-05T01:38:27.382Z,11.63
2022-08-05T01:40:59.569Z,12.90
2022-08-05T01:43:29.572Z,11.93
2022-08-05T01:46:06.864Z,11.53
2022-08-05T01:48:37.392Z,11.10
2022-08-05T01:51:12.548Z,13.27
2022-08-05T01:53:58.048Z,12.37
2022-08-05T01:58:11.870Z,11.73
2022-08-05T01:59:22.976Z,12.80
2022-08-05T02:01:54.678Z,15.87
2022-08-05T02:04:25.012Z,14.30
2022-08-05T02:06:53.982Z,12.97
2022-08-05T02:09:22.064Z,9.90
2022-08-05T02:11:59.940Z,10.60
2022-08-05T02:14:33.877Z,13.50
2022-08-05T02:17:08.972Z,11.33
2022-08-05T02:20:01.266Z,11.87
2022-08-05T02:22:32.303Z,11.47
2022-08-05T02:25:06.520Z,15.17
2022-08-05T02:27:59.113Z,11.83
2022-08-05T02:30:34.305Z,12.07
2022-08-05T02:33:04.686Z,12.40
2022-08-05T02:35:38.571Z,12.73
2022-08-05T02:38:19.861Z,14.03
2022-08-05T02:40:55.212Z,16.50
2022-08-05T02:43:24.649Z,13.77
2022-08-05T02:45:54.856Z,13.57
2022-08-05T02:48:29.226Z,15.00
2022-08-05T02:51:00.170Z,13.90
2022-08-05T02:53:29.104Z,16.90
2022-08-05T02:56:09.156Z,15.70
2022-08-05T02:58:38.124Z,13.80
2022-08-05T03:01:19.517Z,15.53
2022-08-05T03:04:02.534Z,13.60
2022-08-05T03:06:54.923Z,13.10
2022-08-05T03:09:36.034Z,13.57
2022-08-05T03:12:05.102Z,13.60
2022-08-05T03:14:32.893Z,14.10
2022-08-05T03:17:05.049Z,18.30
2022-08-05T03:19:36.478Z,16.73
2022-08-05T03:22:05.104Z,16.00
2022-08-05T03:24:47.098Z,14.00
2022-08-05T03:27:18.554Z,16.63
2022-08-05T03:30:08.483Z,18.00
2022-08-05T03:32:35.859Z,16.20
2022-08-05T03:35:05.584Z,18.33
2022-08-05T03:37:45.779Z,13.60
2022-08-05T03:40:15.396Z,16.20
2022-08-05T03:42:52.915Z,20.20
2022-08-05T03:45:23.224Z,16.23
2022-08-05T03:47:56.969Z,22.57
2022-08-05T03:50:25.690Z,16.07
2022-08-05T03:55:34.754Z,15.17
2022-08-05T03:56:12.162Z,16.83
2022-08-05T03:58:45.763Z,14.87
2022-08-05T04:01:15.746Z,14.93
2022-08-05T04:03:56.921Z,18.37
2022-08-05T04:06:47.438Z,13.10
2022-08-05T04:09:26.150Z,14.97
2022-08-05T04:11:56.858Z,16.97
2022-08-05T04:14:30.462Z,12.90
2022-08-05T04:17:00.519Z,12.70
2022-08-05T04:19:30.798Z,14.43
2022-08-05T04:22:08.092Z,11.70
2022-08-05T04:24:39.379Z,14.03
2022-08-05T04:27:13.128Z,12.87
2022-08-05T04:29:41.470Z,13.57
2022-08-05T04:32:10.140Z,12.10
2022-08-05T04:34:43.005Z,13.90
2022-08-05T04:37:11.787Z,13.40
2022-08-05T04:39:40.704Z,12.33
2022-08-05T04:42:09.544Z,10.40
2022-08-05T04:44:37.394Z,12.80
2022-08-05T04:47:08.766Z,13.80
2022-08-05T04:50:01.290Z,11.43
2022-08-05T04:52:27.401Z,11.27
2022-08-05T04:54:57.371Z,11.70
2022-08-05T04:57:29.170Z,10.40
2022-08-05T05:00:05.820Z,11.87
2022-08-05T05:02:41.835Z,12.17
2022-08-05T05:05:16.605Z,12.80
2022-08-05T05:08:01.627Z,13.60
2022-08-05T05:10:30.249Z,11.63
2022-08-05T05:12:58.415Z,14.00
2022-08-05T05:15:56.194Z,12.60
2022-08-05T05:18:28.329Z,9.67
2022-08-05T05:20:59.590Z,9.67
2022-08-05T05:24:01.948Z,11.83
2022-08-05T05:26:17.357Z,11.17
2022-08-05T05:28:45.356Z,14.30
2022-08-05T05:31:13.679Z,12.10
2022-08-05T05:33:59.285Z,12.07
2022-08-05T05:36:28.817Z,10.50
2022-08-05T05:38:59.198Z,20.50
2022-08-05T05:41:40.739Z,13.23
2022-08-05T05:44:36.870Z,11.07
2022-08-05T05:46:57.967Z,12.87
2022-08-05T05:49:25.916Z,9.87
2022-08-05T05:51:53.816Z,11.10
2022-08-05T05:54:49.750Z,14.60
2022-08-05T05:57:13.825Z,11.38
2022-08-05T05:59:46.960Z,12.83
2022-08-05T06:02:16.883Z,13.53
2022-08-05T06:04:49.191Z,14.13
2022-08-05T06:07:17.261Z,10.50
2022-08-05T06:10:04.360Z,15.30
2022-08-05T06:12:34.665Z,10.97
2022-08-05T06:15:16.514Z,10.53
2022-08-05T06:17:54.769Z,10.17
2022-08-05T06:20:23.004Z,11.80
2022-08-05T06:22:50.799Z,29.53
2022-08-05T06:25:59.142Z,12.30
2022-08-05T06:28:12.211Z,31.40
2022-08-05T06:30:49.157Z,15.03
2022-08-05T06:33:19.268Z,13.10
2022-08-05T06:36:03.841Z,8.80
2022-08-05T06:38:36.758Z,10.10
2022-08-05T06:41:07.880Z,12.47
2022-08-05T06:43:59.228Z,13.90
2022-08-05T06:46:30.405Z,10.63
2022-08-05T06:48:59.453Z,25.70
2022-08-05T06:51:29.853Z,14.90
2022-08-05T06:53:58.736Z,10.83
2022-08-05T06:56:27.947Z,10.77
2022-08-05T06:58:55.807Z,13.10
2022-08-05T07:01:27.510Z,10.50
2022-08-05T07:03:59.904Z,9.50
2022-08-05T07:06:28.481Z,10.27
2022-08-05T07:08:56.391Z,11.03
2022-08-05T07:11:30.853Z,11.20
2022-08-05T07:14:20.761Z,10.87
2022-08-05T07:17:58.472Z,11.23
2022-08-05T07:22:36.555Z,13.87
2022-08-05T07:25:22.433Z,10.93
2022-08-05T07:28:01.429Z,12.50
2022-08-05T07:30:32.628Z,10.37
2022-08-05T07:33:01.556Z,12.70
2022-08-05T07:36:04.716Z,12.53
2022-08-05T07:38:32.493Z,9.70
2022-08-05T07:42:09.594Z,9.90
2022-08-05T07:43:55.142Z,10.77
2022-08-05T07:46:25.976Z,12.70
2022-08-05T07:49:04.156Z,11.73
2022-08-05T07:51:36.982Z,10.80
2022-08-05T07:54:09.665Z,10.17
2022-08-05T07:57:00.836Z,13.93
2022-08-05T07:59:38.232Z,11.47
2022-08-05T08:02:16.041Z,10.37
2022-08-05T08:04:46.019Z,11.50
2022-08-05T08:07:14.056Z,13.80
2022-08-05T08:09:42.976Z,10.57
2022-08-05T08:12:35.083Z,12.10
2022-08-05T08:15:03.502Z,10.70
2022-08-05T08:17:32.472Z,10.93
2022-08-05T08:20:42.614Z,9.47
2022-08-05T08:22:52.833Z,11.33
2022-08-05T08:25:26.740Z,9.07
2022-08-05T08:28:03.919Z,10.30
2022-08-05T08:30:40.715Z,12.23
2022-08-05T08:33:15.578Z,13.30
2022-08-05T08:35:52.322Z,9.67
2022-08-05T08:38:35.154Z,12.07
2022-08-05T08:41:08.296Z,10.97
2022-08-05T08:45:20.621Z,14.73
2022-08-05T08:46:28.590Z,13.90
2022-08-05T08:49:07.965Z,11.93
2022-08-05T08:52:04.306Z,14.57
2022-08-05T08:54:36.266Z,13.10
2022-08-05T08:57:11.382Z,12.30
2022-08-05T08:59:41.802Z,10.37
2022-08-05T09:02:19.798Z,12.63
2022-08-05T09:05:16.443Z,10.90
2022-08-05T09:07:40.049Z,12.37
2022-08-05T09:10:27.833Z,12.57
2022-08-05T09:13:04.835Z,10.43
2022-08-05T09:15:36.827Z,10.23
2022-08-05T09:18:08.901Z,12.33
2022-08-05T09:20:38.027Z,10.60
2022-08-05T09:23:18.808Z,11.87
2022-08-05T09:26:00.857Z,13.07
2022-08-05T09:28:33.719Z,12.70
2022-08-05T09:31:23.294Z,10.70
2022-08-05T09:33:59.758Z,9.37
2022-08-05T09:36:45.854Z,12.70
2022-08-05T09:39:41.131Z,11.33
2022-08-05T09:42:23.500Z,9.70
2022-08-05T09:44:56.331Z,9.30
2022-08-05T09:47:36.341Z,10.70
2022-08-05T09:50:38.174Z,10.67
2022-08-05T09:53:08.751Z,13.55
2022-08-05T09:55:58.453Z,14.10
2022-08-05T09:58:29.131Z,15.53
2022-08-05T10:01:00.887Z,14.40
2022-08-05T10:03:56.675Z,16.27
2022-08-05T10:06:20.807Z,15.90
2022-08-05T10:08:54.018Z,19.93
2022-08-05T10:11:23.670Z,21.87
2022-08-05T10:13:58.831Z,16.57
2022-08-05T10:16:33.794Z,15.80
2022-08-05T10:19:08.446Z,18.83
2022-08-05T10:21:39.965Z,15.73
2022-08-05T10:24:12.827Z,14.73
2022-08-05T10:26:52.021Z,13.93
2022-08-05T10:29:23.640Z,16.50
2022-08-05T10:32:55.176Z,16.43
2022-08-05T10:35:01.021Z,20.30
2022-08-05T10:37:40.286Z,18.50
2022-08-05T10:40:28.140Z,24.63
2022-08-05T10:43:00.684Z,17.20
2022-08-05T10:45:40.270Z,14.47
2022-08-05T10:48:52.916Z,17.20
2022-08-05T10:51:29.325Z,19.23
2022-08-05T10:54:01.809Z,20.03
2022-08-05T10:56:45.806Z,21.10
2022-08-05T11:00:02.220Z,19.03
2022-08-05T11:02:14.124Z,18.80
2022-08-05T11:04:46.251Z,21.50
2022-08-05T11:07:16.398Z,18.87
2022-08-05T11:09:47.425Z,22.40
2022-08-05T11:12:50.932Z,19.93
2022-08-05T11:16:01.362Z,21.17
2022-08-05T11:18:27.215Z,21.20
2022-08-05T11:20:58.261Z,21.80
2022-08-05T11:24:04.076Z,22.03
2022-08-05T11:26:28.503Z,20.70
2022-08-05T11:29:06.644Z,17.77
2022-08-05T11:31:57.537Z,18.23
2022-08-05T11:34:51.502Z,21.35
2022-08-05T11:38:30.245Z,21.73
2022-08-05T11:41:34.314Z,20.00
2022-08-05T11:44:05.365Z,21.00
2022-08-05T11:46:37.722Z,20.27
2022-08-05T11:49:08.010Z,22.13
2022-08-05T11:51:44.207Z,19.50
2022-08-05T11:54:24.472Z,23.13
2022-08-05T11:57:08.678Z,18.40
2022-08-05T11:59:52.938Z,28.27
2022-08-05T12:02:31.633Z,20.90
2022-08-05T12:05:06.829Z,24.77
2022-08-05T12:08:10.541Z,21.90
2022-08-05T12:10:43.783Z,21.43
2022-08-05T12:13:16.650Z,23.40
2022-08-05T12:15:49.508Z,24.13
2022-08-05T12:18:20.720Z,18.70
2022-08-05T12:20:52.232Z,23.43
2022-08-05T12:23:19.959Z,22.07
2022-08-05T12:25:52.483Z,26.80
2022-08-05T12:28:38.188Z,34.67
2022-08-05T12:31:07.348Z,25.90
2022-08-05T12:33:36.934Z,25.20
2022-08-05T12:36:08.729Z,29.40
2022-08-05T12:38:38.296Z,22.00
2022-08-05T12:41:12.882Z,29.80
2022-08-05T12:43:52.672Z,21.67
2022-08-05T12:46:28.963Z,20.70
2022-08-05T12:48:59.550Z,19.77
2022-08-05T12:52:13.901Z,18.90
2022-08-05T12:54:26.501Z,17.47
2022-08-05T12:56:56.566Z,14.63
2022-08-05T12:59:46.952Z,18.90
2022-08-05T13:02:18.349Z,14.53
2022-08-05T13:04:52.531Z,11.10
2022-08-05T13:07:56.147Z,11.80
2022-08-05T13:10:14.247Z,11.43
2022-08-05T13:12:51.209Z,12.80
2022-08-05T13:15:42.131Z,8.90
2022-08-05T13:18:20.348Z,10.33
2022-08-05T13:20:49.923Z,9.90
2022-08-05T13:23:22.529Z,9.60
2022-08-05T13:25:59.228Z,9.50
2022-08-05T13:28:29.686Z,10.47
2022-08-05T13:31:00.195Z,7.83
2022-08-05T13:34:23.244Z,8.60
2022-08-05T13:36:30.015Z,9.33
2022-08-05T13:38:57.931Z,9.83
2022-08-05T13:41:37.604Z,10.10
2022-08-05T13:44:06.177Z,8.10
2022-08-05T13:46:50.819Z,8.30
2022-08-05T13:49:23.065Z,12.30
2022-08-05T13:51:51.315Z,8.23
2022-08-05T13:54:25.167Z,8.97
2022-08-05T13:56:53.478Z,7.67
2022-08-05T13:59:24.930Z,7.50
2022-08-05T14:01:59.235Z,10.43
2022-08-05T14:04:50.850Z,8.73
2022-08-05T14:07:56.853Z,7.70
2022-08-05T14:10:12.873Z,11.77
2022-08-05T14:12:42.876Z,10.07
2022-08-05T14:16:08.603Z,6.90
2022-08-05T14:18:05.902Z,11.37
2022-08-05T14:20:47.109Z,8.20
2022-08-05T14:23:24.729Z,9.53
2022-08-05T14:25:54.538Z,9.53
2022-08-05T14:28:27.280Z,8.10
2022-08-05T14:30:55.850Z,8.83
2022-08-05T14:33:24.332Z,8.77
2022-08-05T14:35:54.750Z,12.80
2022-08-05T14:38:27.692Z,12.07
2022-08-05T14:41:01.743Z,11.23
2022-08-05T14:43:59.481Z,11.13
2022-08-05T14:46:22.108Z,11.33
2022-08-05T14:48:50.205Z,11.77
2022-08-05T14:51:19.489Z,9.77
2022-08-05T14:54:26.790Z,9.20
2022-08-05T14:56:37.985Z,10.67
2022-08-05T14:59:12.764Z,9.23
2022-08-05T15:01:48.055Z,8.70
2022-08-05T15:04:17.440Z,8.50
2022-08-05T15:06:50.263Z,9.33
2022-08-05T15:09:51.048Z,9.73
2022-08-05T15:12:06.916Z,9.33
2022-08-05T15:14:48.050Z,10.43
2022-08-05T15:17:46.749Z,8.77
2022-08-05T15:20:06.107Z,8.23
2022-08-05T15:22:35.223Z,8.57
2022-08-05T15:25:13.851Z,9.30
2022-08-05T15:27:42.956Z,8.10
2022-08-05T15:30:20.067Z,7.30
2022-08-05T15:32:47.889Z,8.70
2022-08-05T15:35:15.940Z,7.13
2022-08-05T15:38:32.953Z,9.43
2022-08-05T15:41:00.836Z,7.77
2022-08-05T15:43:21.641Z,8.10
2022-08-05T15:46:00.198Z,9.37
2022-08-05T15:48:29.834Z,8.67
2022-08-05T15:50:58.198Z,7.67
2022-08-05T15:53:38.265Z,7.03
2022-08-05T15:56:18.205Z,8.30
2022-08-05T15:58:46.636Z,9.33
2022-08-05T16:01:16.158Z,10.50
2022-08-05T16:03:48.524Z,7.53
2022-08-05T16:06:19.967Z,9.47
2022-08-05T16:08:53.650Z,9.73
2022-08-05T16:11:42.482Z,7.77
2022-08-05T16:14:17.230Z,7.60
2022-08-05T16:16:46.093Z,8.50
2022-08-05T16:19:25.636Z,6.90
2022-08-05T16:22:03.457Z,7.47
2022-08-05T16:24:41.824Z,7.90
2022-08-05T16:27:32.241Z,8.63
2022-08-05T16:30:23.085Z,7.13
2022-08-05T16:32:53.756Z,7.40
2022-08-05T16:35:27.585Z,7.03
2022-08-05T16:38:15.745Z,7.77
2022-08-05T16:40:48.074Z,7.10
2022-08-05T16:43:24.056Z,7.10
2022-08-05T16:46:03.614Z,6.60
2022-08-05T16:48:36.195Z,7.10
2022-08-05T16:51:09.904Z,9.27
2022-08-05T16:54:05.650Z,7.50
2022-08-05T16:56:29.944Z,8.40
2022-08-05T16:58:58.189Z,9.10
2022-08-05T17:01:26.784Z,7.10
2022-08-05T17:03:54.608Z,7.60
2022-08-05T17:06:24.699Z,6.60
2022-08-05T17:08:54.468Z,6.70
2022-08-05T17:11:23.891Z,7.00
2022-08-05T17:14:05.371Z,10.00
2022-08-05T17:16:36.226Z,7.33
2022-08-05T17:19:07.737Z,7.60
2022-08-05T17:21:39.337Z,7.23
2022-08-05T17:24:28.392Z,7.43
2022-08-05T17:26:57.525Z,7.80
2022-08-05T17:29:33.072Z,8.03
2022-08-05T17:32:08.437Z,11.70
2022-08-05T17:34:39.491Z,8.00
2022-08-05T17:37:29.473Z,7.17
2022-08-05T17:39:56.161Z,6.97
2022-08-05T17:42:31.844Z,6.67
2022-08-05T17:45:09.704Z,9.90
2022-08-05T17:47:38.225Z,7.10
2022-08-05T17:50:10.898Z,9.40
2022-08-05T17:52:53.254Z,8.40
2022-08-05T17:55:22.826Z,11.20
2022-08-05T17:58:02.131Z,7.63
2022-08-05T18:00:32.672Z,10.20
2022-08-05T18:03:00.473Z,8.23
2022-08-05T18:05:28.417Z,8.40
2022-08-05T18:08:03.594Z,10.27
2022-08-05T18:10:33.698Z,7.20
2022-08-05T18:13:01.942Z,8.13
2022-08-05T18:15:38.657Z,7.47
2022-08-05T18:18:11.099Z,8.83
2022-08-05T18:20:39.385Z,7.60
2022-08-05T18:23:09.391Z,9.17
2022-08-05T18:25:45.239Z,8.53
2022-08-05T18:28:16.578Z,7.30
2022-08-05T18:30:50.767Z,7.83
2022-08-05T18:33:23.085Z,8.07
2022-08-05T18:36:03.944Z,8.57
2022-08-05T18:38:36.158Z,9.00
2022-08-05T18:42:00.388Z,8.80
2022-08-05T18:43:52.217Z,8.13
2022-08-05T18:46:29.063Z,7.33
2022-08-05T18:49:17.118Z,9.47
2022-08-05T18:52:08.962Z,9.97
2022-08-05T18:54:41.237Z,7.93
2022-08-05T18:57:15.433Z,8.40
2022-08-05T19:00:02.302Z,6.50
2022-08-05T19:02:32.884Z,8.03
2022-08-05T19:06:06.204Z,7.60
2022-08-05T19:07:49.955Z,8.50
2022-08-05T19:10:26.676Z,7.87
2022-08-05T19:12:56.595Z,7.17
2022-08-05T19:15:57.332Z,8.40
2022-08-05T19:18:21.966Z,8.50
2022-08-05T19:20:51.987Z,11.50
2022-08-05T19:23:22.362Z,8.63
2022-08-05T19:26:08.405Z,9.83
2022-08-05T19:28:41.533Z,8.97
2022-08-05T19:31:12.871Z,8.20
2022-08-05T19:33:48.642Z,8.07
2022-08-05T19:36:25.187Z,6.70
2022-08-05T19:38:54.400Z,8.60
2022-08-05T19:42:05.519Z,7.70
2022-08-05T19:44:12.995Z,7.83
2022-08-05T19:46:43.756Z,6.77
2022-08-05T19:49:16.517Z,9.10
2022-08-05T19:52:13.147Z,7.80
2022-08-05T19:54:34.644Z,8.37
2022-08-05T19:57:06.403Z,7.07
2022-08-05T20:00:01.534Z,6.80
2022-08-05T20:02:26.285Z,7.80
2022-08-05T20:04:58.802Z,6.47
2022-08-05T20:07:46.331Z,6.33
2022-08-05T20:10:15.321Z,7.35
2022-08-05T20:12:47.521Z,6.87
2022-08-05T20:15:48.468Z,7.60
2022-08-05T20:18:10.689Z,6.30
2022-08-05T20:20:56.193Z,6.33
2022-08-05T20:23:44.523Z,6.10
2022-08-05T20:26:15.879Z,6.20
2022-08-05T20:28:45.843Z,6.90
2022-08-05T20:31:16.553Z,5.43
2022-08-05T20:33:45.192Z,5.50
2022-08-05T20:36:16.195Z,6.33
2022-08-05T20:38:54.581Z,6.00
2022-08-05T20:41:43.046Z,7.20
2022-08-05T20:44:17.851Z,6.23
2022-08-05T20:46:57.655Z,5.33
2022-08-05T20:49:25.881Z,8.37
2022-08-05T20:51:57.372Z,6.83
2022-08-05T20:54:26.987Z,5.60
2022-08-05T20:57:14.951Z,6.53
2022-08-05T21:00:20.614Z,7.90
2022-08-05T21:02:55.341Z,11.90
2022-08-05T21:05:24.833Z,6.40
2022-08-05T21:07:53.929Z,6.40
2022-08-05T21:10:24.102Z,6.30
2022-08-05T21:12:57.594Z,7.40
2022-08-05T21:15:33.763Z,7.47
2022-08-05T21:18:02.000Z,6.63
2022-08-05T21:20:32.773Z,6.20
2022-08-05T21:23:03.114Z,6.03
2022-08-05T21:25:33.822Z,7.00
2022-08-05T21:28:02.911Z,6.80
2022-08-05T21:30:31.454Z,5.80
2022-08-05T21:32:59.749Z,6.73
2022-08-05T21:35:55.786Z,5.60
2022-08-05T21:38:19.076Z,8.13
2022-08-05T21:40:46.830Z,6.00
2022-08-05T21:43:24.047Z,6.37
2022-08-05T21:45:57.597Z,7.30
2022-08-05T21:48:28.617Z,7.20
2022-08-05T21:50:57.292Z,6.40
2022-08-05T21:53:27.356Z,6.93
2022-08-05T21:56:04.781Z,6.20
2022-08-05T21:58:36.671Z,6.60
2022-08-05T22:01:10.788Z,6.93
2022-08-05T22:03:51.773Z,11.27
2022-08-05T22:06:22.432Z,14.03
2022-08-05T22:08:53.407Z,7.10
2022-08-05T22:11:34.823Z,8.93
2022-08-05T22:14:34.343Z,6.77
2022-08-05T22:16:56.795Z,8.37
2022-08-05T22:20:01.932Z,7.10
2022-08-05T22:22:15.572Z,6.93
2022-08-05T22:25:02.844Z,7.47
2022-08-05T22:28:10.577Z,7.53
2022-08-05T22:30:37.481Z,6.40
2022-08-05T22:33:57.282Z,9.40
2022-08-05T22:36:09.462Z,6.27
2022-08-05T22:38:37.848Z,8.50
2022-08-05T22:41:11.843Z,6.30
2022-08-05T22:43:42.840Z,7.90
2022-08-05T22:46:13.200Z,6.20
2022-08-05T22:48:48.724Z,6.83
2022-08-05T22:51:23.348Z,7.93
2022-08-05T22:54:04.372Z,7.60
2022-08-05T22:56:33.611Z,7.80
2022-08-05T22:59:03.155Z,6.20
2022-08-05T23:02:03.815Z,7.03
2022-08-05T23:04:20.286Z,6.87
2022-08-05T23:06:48.123Z,6.30
2022-08-05T23:09:52.590Z,9.13
2022-08-05T23:12:05.718Z,5.63
2022-08-05T23:14:34.050Z,10.33
2022-08-05T23:17:24.245Z,6.77
2022-08-05T23:20:02.687Z,9.73
2022-08-05T23:22:31.082Z,8.40
2022-08-05T23:24:59.260Z,7.40
2022-08-05T23:27:42.261Z,7.80
2022-08-05T23:30:17.114Z,7.10
2022-08-05T23:32:45.269Z,7.77
2022-08-05T23:35:13.556Z,7.30
2022-08-05T23:37:41.358Z,6.10
2022-08-05T23:40:11.905Z,6.20
2022-08-05T23:42:41.118Z,8.00
2022-08-05T23:45:15.842Z,6.50
2022-08-05T23:47:47.834Z,6.93
2022-08-05T23:50:17.107Z,7.17
2022-08-05T23:52:49.435Z,8.73
2022-08-05T23:55:18.193Z,7.40
2022-08-05T23:57:51.254Z,7.13
